Flight Track Log - Related Links

Times and Time Zones

All times are in EDT time to prevent confusion due to time zone crossing. See the JUS327 flight status page for this flight to view local times or setup timezone preferences in your user account.

Time Position Orientation Groundspeed Altitude Reporting Facility
EDT Latitude Longitude Course Direction KTS MPH feet Rate Location/Type
Wed 03:40:30 PM 42.2528 -83.5103 27° Northeast 160 184 2,300  Level FAA TRACON SMA TRACON (SMA)
Wed 03:40:50 PM 42.2664 -83.5008 27° Northeast 187 215 2,900 1,800 Climbing FAA TRACON SMA TRACON (SMA)
Wed 03:41:10 PM 42.2850 -83.5136 333° Northwest 212 244 3,500 1,650 Climbing FAA TRACON SMA TRACON (SMA)
Wed 03:41:30 PM 42.2858 -83.5378 273° West 216 249 4,000 1,650 Climbing FAA TRACON SMA TRACON (SMA)
Wed 03:41:50 PM 42.2800 -83.5631 253° West 247 284 4,600 2,488 Climbing FAA TRACON SMA TRACON (SMA)
Wed 03:42:11 PM 42.2747 -83.6017 260° West 273 314 5,700 3,805 Climbing FAA TRACON SMA TRACON (SMA)
Wed 03:42:31 PM 42.2711 -83.6317 261° West 258 297 7,200 4,000 Climbing FAA TRACON SMA TRACON (SMA)
Wed 03:42:50 PM 42.2767 -83.6622 284° West 281 323 8,300 4,000 Climbing FAA TRACON SMA TRACON (SMA)
Wed 03:43:10 PM 42.2986 -83.6894 317° Northwest 280 322 9,800 3,846 Climbing FAA TRACON SMA TRACON (SMA)
Wed 03:43:29 PM 42.3228 -83.6972 347° North 297 342 10,800 2,308 Climbing FAA TRACON SMA TRACON (SMA)
Wed 03:43:49 PM 42.3494 -83.6897 12° North 328 377 11,300 1,317 Climbing FAA TRACON SMA TRACON (SMA)
Wed 03:44:10 PM 42.3850 -83.6772 15° North 349 402 11,700 1,350 Climbing FAA TRACON SMA TRACON (SMA)
Wed 03:44:29 PM 42.4144 -83.6594 24° Northeast 376 433 12,200 1,500 Climbing FAA TRACON SMA TRACON (SMA)
Wed 03:44:50 PM 42.4386 -83.6278 44° Northeast 391 450 12,700 1,200 Climbing FAA TRACON SMA TRACON (SMA)
Wed 03:45:09 PM 42.4556 -83.5811 64° Northeast 401 461 13,000 462 Climbing FAA TRACON SMA TRACON (SMA)
Wed 03:45:29 PM 42.4586 -83.5358 85° East 395 455 13,000 -136 Level FAA TRACON SMA TRACON (SMA)
Wed 03:45:53 PM 42.4508 -83.4800 101° East 406 467 12,900  Descending FAA TRACON SMA TRACON (SMA)
Wed 03:46:13 PM 42.4433 -83.4244 100° East 385 443 13,000 167 Climbing FAA TRACON SMA TRACON (SMA)
Wed 03:46:29 PM 42.4383 -83.3908 101° East 399 459 13,000 811 Level FAA TRACON SMA TRACON (SMA)
Wed 03:46:50 PM 42.4261 -83.3367 107° East 395 455 13,500 1,902 Climbing FAA TRACON SMA TRACON (SMA)
Wed 03:47:10 PM 42.4161 -83.2928 107° East 397 457 14,300 2,154 Climbing FAA TRACON SMA TRACON (SMA)
Wed 03:47:29 PM 42.4058 -83.2486 107° East 399 459 14,900 2,250 Climbing FAA TRACON SMA TRACON (SMA)
Wed 03:47:50 PM 42.3928 -83.1914 107° East 410 472 15,800 2,400 Climbing FAA TRACON SMA TRACON (SMA)
Wed 03:48:09 PM 42.3825 -83.1447 107° East 418 481 16,500 2,100 Climbing FAA TRACON SMA TRACON (SMA)
Wed 03:48:30 PM 42.3722 -83.0972 106° East 425 489 17,200 1,902 Climbing FAA TRACON SMA TRACON (SMA)
Wed 03:48:50 PM 42.3589 -83.0375 107° East 429 494 17,800 1,950 Climbing FAA TRACON SMA TRACON (SMA)
Wed 03:49:10 PM 42.3478 -82.9894 107° East 433 498 18,500 2,154 Climbing FAA TRACON SMA TRACON (SMA)
Wed 03:49:29 PM 42.3367 -82.9408 107° East 439 505 19,200 2,100 Climbing FAA TRACON SMA TRACON (SMA)
Wed 03:49:50 PM 42.3256 -82.8908 107° East 445 512 19,900 2,100 Climbing FAA TRACON SMA TRACON (SMA)
Wed 03:50:09 PM 42.3114 -82.8281 107° East 452 520 20,600 1,950 Climbing FAA TRACON SMA TRACON (SMA)
Wed 03:50:30 PM 42.2997 -82.7772 107° East 458 527 21,200 1,610 Climbing FAA TRACON SMA TRACON (SMA)
Wed 03:50:50 PM 42.2875 -82.7258 108° East 463 533 21,700 2,000 Climbing FAA TRACON SMA TRACON (SMA)
Wed 03:51:09 PM 42.2725 -82.6608 107° East 469 540 22,500 2,250 Climbing FAA TRACON SMA TRACON (SMA)
Wed 03:51:30 PM 42.2603 -82.6083 107° East 473 544 23,200 1,950 Climbing FAA TRACON SMA TRACON (SMA)
Wed 03:51:49 PM 42.2486 -82.5553 107° East 477 549 23,800 1,350 Climbing FAA TRACON SMA TRACON (SMA)
Wed 03:52:10 PM 42.2431 -82.5289 106° East 478 550 24,100 439 Climbing FAA TRACON SMA TRACON (SMA)
Wed 03:52:30 PM 42.2431 -82.5289 170° South 478 550 24,100 2,123 Level FAA TRACON SMA TRACON (SMA)
Wed 03:53:15 PM 42.2056 -82.2958 102° East 476 548 26,400 2,114 Climbing Cleveland Center
Wed 03:54:15 PM 42.2058 -82.1306 90° East 484 557 27,800 1,250 Climbing Cleveland Center
Wed 03:55:15 PM 42.1936 -81.9397 95° East 499 574 28,900 1,500 Climbing Cleveland Center
Wed 03:56:15 PM 42.1794 -81.7319 95° East 506 582 30,800 1,900 Climbing Cleveland Center
Wed 03:57:15 PM 42.1644 -81.5467 96° East 499 574 32,700 1,600 Climbing Cleveland Center
Wed 03:58:15 PM 42.1450 -81.3644 98° East 499 574 34,000 1,050 Climbing Cleveland Center
Wed 03:59:15 PM 42.1294 -81.1767 96° East 504 580 34,800 500 Climbing Cleveland Center
Wed 04:00:15 PM 42.1156 -80.9861 96° East 504 580 35,000 100 Climbing Cleveland Center
Wed 04:01:15 PM 42.0514 -80.8181 117° Southeast 504 580 35,000  Level Cleveland Center
Wed 04:02:15 PM 41.9808 -80.6836 125° Southeast 480 552 35,000  Level Cleveland Center
Wed 04:03:15 PM 41.9600 -80.4994 99° East 501 577 35,000  Level Cleveland Center
Wed 04:04:15 PM 41.9450 -80.3097 96° East 501 577 35,000  Level Cleveland Center
Wed 04:05:15 PM 41.9111 -80.1311 104° East 501 577 35,000  Level Cleveland Center
Wed 04:06:15 PM 41.8750 -79.9503 105° East 494 568 35,000  Level Cleveland Center
Wed 04:07:15 PM 41.8403 -79.7553 103° East 494 568 35,000  Level Cleveland Center
Wed 04:08:15 PM 41.8161 -79.5914 101° East 494 568 35,000  Level Cleveland Center
Wed 04:09:15 PM 41.7853 -79.4108 103° East 489 563 35,000  Level Cleveland Center
Wed 04:10:15 PM 41.7519 -79.2278 104° East 489 563 35,000  Level Cleveland Center
Wed 04:11:15 PM 41.7164 -79.0506 105° East 489 563 35,000  Level Cleveland Center
Wed 04:12:15 PM 41.6822 -78.8511 103° East 495 570 35,000  Level Cleveland Center
Wed 04:13:15 PM 41.6481 -78.6686 104° East 495 570 35,000  Level Cleveland Center
Wed 04:14:15 PM 41.6181 -78.5083 104° East 495 570 35,000  Level Cleveland Center
Wed 04:15:15 PM 41.5814 -78.3292 105° East 495 570 35,000 -945 Level Cleveland Center
Wed 04:16:22 PM 41.5433 -78.1303 104° East 498 573 33,000 -1,937 Descending New York Center
Wed 04:17:22 PM 41.5064 -77.9517 105° East 498 573 30,900 -992 Descending New York Center
Wed 04:18:23 PM 41.4775 -77.7739 102° East 498 573 31,000 50 Climbing New York Center
Wed 04:19:23 PM 41.4567 -77.5917 99° East 493 567 31,000  Level New York Center
Wed 04:20:24 PM 41.4317 -77.4094 100° East 498 573 31,000  Level New York Center
Wed 04:21:22 PM 41.4028 -77.2156 101° East 492 566 31,000 -763 Level New York Center
Wed 04:22:22 PM 41.3769 -77.0333 101° East 492 566 29,500 -1,983 Descending New York Center
Wed 04:23:23 PM 41.3511 -76.8514 101° East 492 566 27,000 -2,410 Descending New York Center
Wed 04:24:24 PM 41.3244 -76.6803 102° East 492 566 24,600 -2,420 Descending New York Center
Wed 04:25:22 PM 41.2756 -76.5269 113° Southeast 472 543 22,200 -2,370 Descending New York Center
Wed 04:26:23 PM 41.2300 -76.3906 114° Southeast 449 517 19,900 -2,311 Descending New York Center
Wed 04:27:24 PM 41.1875 -76.2300 109° East 425 489 17,500 -2,370 Descending New York Center
Wed 04:28:22 PM 41.1506 -76.0836 108° East 413 475 15,200 -2,017 Descending New York Center
Wed 04:29:23 PM 41.1150 -75.9458 109° East 405 466 13,500 -1,041 Descending New York Center
Wed 04:30:23 PM 41.0822 -75.8333 111° Southeast 374 430 13,100 -248 Descending New York Center
Wed 04:31:24 PM 41.0425 -75.6928 111° Southeast 374 430 13,000 -50 Descending New York Center
Wed 04:32:22 PM 41.0022 -75.5578 112° Southeast 374 430 13,000  Level New York Center
Wed 04:33:23 PM 40.9694 -75.4400 110° East 385 443 13,000  Level New York Center
Wed 04:34:24 PM 40.9331 -75.3003 109° East 391 450 13,000 -1,008 Level New York Center
Wed 04:35:22 PM 40.8967 -75.1606 109° East 383 441 11,000 -1,916 Descending New York Center
Wed 04:36:23 PM 40.8636 -75.0406 110° East 363 418 9,200 -1,835 Descending New York Center
Wed 04:37:23 PM 40.8633 -74.9306 90° East 306 352 7,300 -1,100 Descending New York Center
Wed 04:38:23 PM 40.8958 -74.8339 66° East 286 329 7,000 -151 Descending New York Center
Wed 04:39:22 PM 40.9172 -74.7583 69° East 253 291 7,000 -200 Level New York Center
Wed 04:40:23 PM 40.9081 -74.6561 97° East 240 276 6,600 -496 Descending New York Center
Wed 04:41:23 PM 40.8942 -74.5758 103° East 245 282 6,000 -294 Descending New York Center
Wed 04:42:05 PM 40.8500 -74.5167 135° Southeast 259 298 6,100 59 Climbing New York TRACON
Wed 04:43:05 PM 40.7833 -74.5500 201° Southwest 237 273 6,100 -200 Level New York TRACON
Wed 04:44:05 PM 40.7167 -74.5500 180° South 250 288 5,700 -500 Descending New York TRACON
Wed 04:45:05 PM 40.6500 -74.5500 180° South 250 288 5,100 -300 Descending New York TRACON
Wed 04:46:05 PM 40.5833 -74.5667 191° South 239 275 5,100  Level New York TRACON
Wed 04:47:05 PM 40.5167 -74.5500 169° South 245 282 5,100 -200 Level New York TRACON
Wed 04:48:05 PM 40.4500 -74.5333 169° South 242 278 4,700 -550 Descending New York TRACON
Wed 04:49:05 PM 40.3833 -74.5333 180° South 217 250 4,000 -600 Descending New York TRACON
Wed 04:50:05 PM 40.3500 -74.4833 131° Southeast 200 230 3,500 -450 Descending New York TRACON
Wed 04:51:05 PM 40.3333 -74.4167 108° East 206 237 3,100 -200 Descending New York TRACON
Wed 04:52:05 PM 40.3833 -74.3667 37° Northeast 197 227 3,100  Level New York TRACON
Wed 04:53:05 PM 40.4167 -74.3333 37° Northeast 196 226 3,100  Level New York TRACON
Wed 04:54:05 PM 40.4667 -74.3000 27° Northeast 189 217 3,100  Level New York TRACON
Wed 04:55:05 PM 40.5167 -74.2833 14° North 179 206 3,100  Level New York TRACON
Wed 04:55:59 PM 40.5500 -74.2500 37° Northeast 176 203 3,100 -526 Level New York TRACON
Wed 04:56:59 PM 40.6000 -74.2167 27° Northeast 177 204 2,100 -1,100 Descending New York TRACON
Wed 04:57:59 PM 40.6500 -74.2000 14° North 154 177 900 -1,200 Descending New York TRACON

Login

Don't have an account? Register now (free) for customized features, flight alerts, and more!